Woburn, Illinois
Current Conditions -  °F | °C
As of 12:15 PM on Thursday 29 Jan 2015 (Local Time) from K3LF Reporting Station
Overcast Overcast  
Wind Chill: 27°   Ceiling: 2200
Heat Index: 37°   Visibility: 10mi
Dew Point: 30°   Wind: 17mph
Humidity: 77%   Direction: 310°NW
Pressure: 30.11"   Gusts: 28mph
Location:  38.895°N, 89.397°W
Report Text: K3LF 291815Z AUTO 31015G24KT 10SM OVC022 03/M01 A3011 RMK AO2 T00271010
Loading
Personal Weather Stations






























Interactive Weather Map New forecast layout! Learn more

10-Day Weather Forecast

Advertisements
Track Severe Weather on mobile